createdAt,value
2019-01-16T00:00:14.639Z,1002.49
2019-01-16T00:01:14.612Z,1002.55
2019-01-16T00:02:14.595Z,1002.52
2019-01-16T00:03:14.568Z,1002.49
2019-01-16T00:04:14.547Z,1002.49
2019-01-16T00:05:14.526Z,1002.47
2019-01-16T00:06:14.502Z,1002.44
2019-01-16T00:08:56.978Z,1002.45
2019-01-16T00:09:56.966Z,1002.36
2019-01-16T00:10:56.938Z,1002.36
2019-01-16T00:11:56.910Z,1002.43
2019-01-16T00:12:56.890Z,1002.41
2019-01-16T00:13:56.870Z,1002.42
2019-01-16T00:14:56.857Z,1002.38
2019-01-16T00:15:56.831Z,1002.36
2019-01-16T00:16:56.804Z,1002.43
2019-01-16T00:17:56.779Z,1002.45
2019-01-16T00:18:56.753Z,1002.45
2019-01-16T00:19:56.734Z,1002.49
2019-01-16T00:20:56.712Z,1002.57
2019-01-16T00:21:56.694Z,1002.47
2019-01-16T00:22:56.668Z,1002.52
2019-01-16T00:23:56.646Z,1002.47
2019-01-16T00:24:56.628Z,1002.53
2019-01-16T00:25:56.606Z,1002.51
2019-01-16T00:26:56.581Z,1002.49
2019-01-16T00:27:56.558Z,1002.52
2019-01-16T00:28:56.538Z,1002.56
2019-01-16T00:29:56.514Z,1002.46
2019-01-16T00:30:56.494Z,1002.48
2019-01-16T00:31:56.470Z,1002.49
2019-01-16T00:32:56.447Z,1002.51
2019-01-16T00:33:56.424Z,1002.48
2019-01-16T00:34:56.411Z,1002.51
2019-01-16T00:35:56.388Z,1002.46
2019-01-16T00:36:56.359Z,1002.47
2019-01-16T00:37:56.334Z,1002.43
2019-01-16T00:38:56.313Z,1002.57
2019-01-16T00:39:56.294Z,1002.56
2019-01-16T00:40:56.267Z,1002.49
2019-01-16T00:41:56.250Z,1002.58
2019-01-16T00:42:56.224Z,1002.52
2019-01-16T00:43:56.203Z,1002.59
2019-01-16T00:44:56.183Z,1002.53
2019-01-16T00:45:56.161Z,1002.58
2019-01-16T00:46:56.135Z,1002.56
2019-01-16T00:47:56.114Z,1002.56
2019-01-16T00:48:56.090Z,1002.58
2019-01-16T00:49:56.071Z,1002.64
2019-01-16T00:50:56.045Z,1002.58
2019-01-16T00:51:56.034Z,1002.58
2019-01-16T00:52:56.007Z,1002.68
2019-01-16T00:53:55.983Z,1002.66
2019-01-16T00:54:55.965Z,1002.65
2019-01-16T00:55:55.938Z,1002.61
2019-01-16T00:56:55.917Z,1002.65
2019-01-16T00:57:55.896Z,1002.72
2019-01-16T00:58:55.907Z,1002.71
2019-01-16T00:59:55.850Z,1002.71
2019-01-16T01:00:55.833Z,1002.67
2019-01-16T01:01:55.808Z,1002.78
2019-01-16T01:02:55.785Z,1002.66
2019-01-16T01:03:55.763Z,1002.66
2019-01-16T01:04:55.741Z,1002.76
2019-01-16T01:05:55.718Z,1002.66
2019-01-16T01:06:55.697Z,1002.70
2019-01-16T01:07:55.670Z,1002.76
2019-01-16T01:08:55.652Z,1002.72
2019-01-16T01:09:55.631Z,1002.63
2019-01-16T01:10:55.607Z,1002.72
2019-01-16T01:11:55.586Z,1002.73
2019-01-16T01:12:55.563Z,1002.69
2019-01-16T01:13:55.543Z,1002.76
2019-01-16T01:14:55.521Z,1002.76
2019-01-16T01:15:55.497Z,1002.85
2019-01-16T01:16:55.477Z,1002.82
2019-01-16T01:17:55.453Z,1002.87
2019-01-16T01:18:55.431Z,1002.87
2019-01-16T01:19:55.405Z,1002.81
2019-01-16T01:20:55.391Z,1002.96
2019-01-16T01:21:55.369Z,1002.89
2019-01-16T01:22:55.342Z,1002.90
2019-01-16T01:23:55.323Z,1002.95
2019-01-16T01:24:55.304Z,1002.92
2019-01-16T01:25:55.277Z,1002.91
2019-01-16T01:26:55.255Z,1002.91
2019-01-16T01:27:55.231Z,1002.90
2019-01-16T01:28:55.208Z,1002.94
2019-01-16T01:29:55.193Z,1002.88
2019-01-16T01:30:55.167Z,1003.00
2019-01-16T01:31:55.156Z,1002.95
2019-01-16T01:32:55.127Z,1002.96
2019-01-16T01:33:55.105Z,1002.96
2019-01-16T01:34:55.078Z,1003.03
2019-01-16T01:35:55.057Z,1003.05
2019-01-16T01:36:55.035Z,1002.99
2019-01-16T01:37:55.016Z,1002.98
2019-01-16T01:38:54.991Z,1003.03
2019-01-16T01:39:54.969Z,1003.14
2019-01-16T01:40:54.951Z,1003.09
2019-01-16T01:41:54.935Z,1003.20
2019-01-16T01:42:54.903Z,1003.15
2019-01-16T01:43:54.885Z,1003.18
2019-01-16T01:44:54.865Z,1003.20
2019-01-16T01:45:54.843Z,1003.16
2019-01-16T01:46:54.817Z,1003.22
2019-01-16T01:47:54.796Z,1003.23
2019-01-16T01:48:54.771Z,1003.19
2019-01-16T01:49:54.752Z,1003.24
2019-01-16T01:50:54.729Z,1003.19
2019-01-16T01:51:54.711Z,1003.20
2019-01-16T01:52:54.695Z,1003.23
2019-01-16T01:53:54.665Z,1003.26
2019-01-16T01:54:54.641Z,1003.30
2019-01-16T01:55:54.617Z,1003.30
2019-01-16T01:56:54.599Z,1003.29
2019-01-16T01:57:54.581Z,1003.36
2019-01-16T01:58:54.551Z,1003.32
2019-01-16T01:59:54.580Z,1003.37
2019-01-16T02:00:54.507Z,1003.43
2019-01-16T02:01:54.489Z,1003.34
2019-01-16T02:02:54.465Z,1003.40
2019-01-16T02:03:54.447Z,1003.44
2019-01-16T02:04:54.424Z,1003.39
2019-01-16T02:05:54.405Z,1003.35
2019-01-16T02:06:54.400Z,1003.40
2019-01-16T02:07:54.796Z,1003.38
2019-01-16T02:08:54.333Z,1003.39
2019-01-16T02:09:54.310Z,1003.45
2019-01-16T02:10:54.290Z,1003.42
2019-01-16T02:11:54.270Z,1003.48
2019-01-16T02:12:54.246Z,1003.51
2019-01-16T02:13:54.226Z,1003.43
2019-01-16T02:14:54.214Z,1003.46
2019-01-16T02:15:54.186Z,1003.54
2019-01-16T02:16:54.163Z,1003.54
2019-01-16T02:17:54.136Z,1003.58
2019-01-16T02:18:54.118Z,1003.53
2019-01-16T02:19:54.092Z,1003.62
2019-01-16T02:20:54.070Z,1003.59
2019-01-16T02:21:54.058Z,1003.64
2019-01-16T02:22:54.028Z,1003.63
2019-01-16T02:23:54.016Z,1003.61
2019-01-16T02:24:53.990Z,1003.55
2019-01-16T02:25:53.962Z,1003.59
2019-01-16T02:26:53.938Z,1003.64
2019-01-16T02:27:53.920Z,1003.57
2019-01-16T02:28:53.898Z,1003.58
2019-01-16T02:29:53.879Z,1003.66
2019-01-16T02:30:53.854Z,1003.65
2019-01-16T02:31:53.834Z,1003.55
2019-01-16T02:32:53.812Z,1003.62
2019-01-16T02:33:53.790Z,1003.60
2019-01-16T02:34:53.770Z,1003.60
2019-01-16T02:35:53.746Z,1003.62
2019-01-16T02:36:53.726Z,1003.61
2019-01-16T02:37:53.712Z,1003.60
2019-01-16T02:38:53.681Z,1003.75
2019-01-16T02:39:53.678Z,1003.58
2019-01-16T02:40:53.642Z,1003.61
2019-01-16T02:41:53.617Z,1003.68
2019-01-16T02:42:53.599Z,1003.67
2019-01-16T02:43:53.572Z,1003.74
2019-01-16T02:44:53.556Z,1003.63
2019-01-16T02:45:53.532Z,1003.69
2019-01-16T02:46:53.594Z,1003.69
2019-01-16T02:47:53.485Z,1003.71
2019-01-16T02:48:56.243Z,1003.74
2019-01-16T02:49:53.444Z,1003.68
2019-01-16T02:50:53.427Z,1003.73
2019-01-16T02:51:53.400Z,1003.75
2019-01-16T02:52:53.382Z,1003.73
2019-01-16T02:53:53.355Z,1003.70
2019-01-16T02:54:53.335Z,1003.68
2019-01-16T02:55:53.316Z,1003.73
2019-01-16T02:56:53.290Z,1003.79
2019-01-16T02:57:53.268Z,1003.74
2019-01-16T02:58:53.244Z,1003.81
2019-01-16T02:59:53.228Z,1003.72
2019-01-16T03:00:53.203Z,1003.76
2019-01-16T03:01:53.185Z,1003.76
2019-01-16T03:02:53.164Z,1003.80
2019-01-16T03:03:53.140Z,1003.75
2019-01-16T03:04:53.118Z,1003.82
2019-01-16T03:05:53.096Z,1003.79
2019-01-16T03:06:53.073Z,1003.76
2019-01-16T03:07:53.051Z,1003.79
2019-01-16T03:08:53.028Z,1003.81
2019-01-16T03:09:53.008Z,1003.82
2019-01-16T03:10:52.998Z,1003.82
2019-01-16T03:11:52.963Z,1003.85
2019-01-16T03:12:52.943Z,1003.81
2019-01-16T03:13:52.920Z,1003.81
2019-01-16T03:14:52.898Z,1003.85
2019-01-16T03:15:52.883Z,1003.88
2019-01-16T03:16:52.862Z,1003.88
2019-01-16T03:17:52.837Z,1003.80
2019-01-16T03:18:52.816Z,1003.85
2019-01-16T03:19:52.794Z,1003.86
2019-01-16T03:20:52.768Z,1003.82
2019-01-16T03:21:52.751Z,1003.95
2019-01-16T03:22:52.729Z,1003.84
2019-01-16T03:23:52.709Z,1003.83
2019-01-16T03:24:52.687Z,1003.80
2019-01-16T03:25:52.660Z,1003.80
2019-01-16T03:26:52.640Z,1003.85
2019-01-16T03:27:52.620Z,1003.86
2019-01-16T03:28:52.602Z,1003.85
2019-01-16T03:29:52.579Z,1003.92
2019-01-16T03:30:52.557Z,1003.85
2019-01-16T03:31:52.536Z,1003.83
2019-01-16T03:32:52.512Z,1003.83
2019-01-16T03:33:52.489Z,1003.82
2019-01-16T03:34:52.469Z,1003.82
2019-01-16T03:35:52.451Z,1003.82
2019-01-16T03:36:52.428Z,1003.82
2019-01-16T03:37:52.401Z,1003.84
2019-01-16T03:38:52.379Z,1003.77
2019-01-16T03:39:52.351Z,1003.84
2019-01-16T03:40:52.326Z,1003.78
2019-01-16T03:41:52.316Z,1003.78
2019-01-16T03:42:52.302Z,1003.85
2019-01-16T03:43:52.275Z,1003.83
2019-01-16T03:44:52.256Z,1003.83
2019-01-16T03:45:52.228Z,1003.84
2019-01-16T03:46:52.205Z,1003.80
2019-01-16T03:47:52.193Z,1003.87
2019-01-16T03:48:52.163Z,1003.86
2019-01-16T03:49:52.143Z,1003.82
2019-01-16T03:50:52.129Z,1003.82
2019-01-16T03:51:52.095Z,1003.83
2019-01-16T03:52:52.079Z,1003.83
2019-01-16T03:53:52.051Z,1003.92
2019-01-16T03:54:52.043Z,1003.82
2019-01-16T03:55:52.011Z,1003.83
2019-01-16T03:56:51.984Z,1003.80
2019-01-16T03:57:51.965Z,1003.74
2019-01-16T03:58:51.947Z,1003.83
2019-01-16T03:59:51.925Z,1003.82
2019-01-16T04:00:51.897Z,1003.80
2019-01-16T04:01:51.881Z,1003.81
2019-01-16T04:02:51.857Z,1003.80
2019-01-16T04:03:51.834Z,1003.75
2019-01-16T04:04:51.879Z,1003.76
2019-01-16T04:05:51.793Z,1003.75
2019-01-16T04:06:51.769Z,1003.74
2019-01-16T04:07:51.749Z,1003.77
2019-01-16T04:08:51.722Z,1003.70
2019-01-16T04:09:51.701Z,1003.74
2019-01-16T04:10:51.682Z,1003.75
2019-01-16T04:11:51.659Z,1003.71
2019-01-16T04:12:51.637Z,1003.70
2019-01-16T04:13:51.615Z,1003.71
2019-01-16T04:14:51.589Z,1003.70
2019-01-16T04:15:51.570Z,1003.64
2019-01-16T04:16:51.549Z,1003.65
2019-01-16T04:17:51.532Z,1003.68
2019-01-16T04:18:51.501Z,1003.61
2019-01-16T04:19:51.487Z,1003.60
2019-01-16T04:20:51.465Z,1003.65
2019-01-16T04:21:51.440Z,1003.65
2019-01-16T04:22:51.415Z,1003.61
2019-01-16T04:23:51.397Z,1003.57
2019-01-16T04:24:51.377Z,1003.57
2019-01-16T04:25:51.348Z,1003.64
2019-01-16T04:26:51.327Z,1003.62
2019-01-16T04:27:51.305Z,1003.59
2019-01-16T04:28:51.283Z,1003.50
2019-01-16T04:29:51.265Z,1003.57
2019-01-16T04:30:51.242Z,1003.53
2019-01-16T04:31:51.223Z,1003.57
2019-01-16T04:32:51.197Z,1003.56
2019-01-16T04:33:51.177Z,1003.57
2019-01-16T04:34:51.154Z,1003.55
2019-01-16T04:35:51.131Z,1003.64
2019-01-16T04:36:51.111Z,1003.53
2019-01-16T04:37:51.086Z,1003.56
2019-01-16T04:38:51.069Z,1003.58
2019-01-16T04:39:51.048Z,1003.57
2019-01-16T04:40:51.033Z,1003.52
2019-01-16T04:41:51.001Z,1003.60
2019-01-16T04:42:50.977Z,1003.55
2019-01-16T04:43:50.959Z,1003.56
2019-01-16T04:44:50.936Z,1003.51
2019-01-16T04:45:50.913Z,1003.60
2019-01-16T04:46:50.889Z,1003.59
2019-01-16T04:47:50.878Z,1003.57
2019-01-16T04:48:50.849Z,1003.60
2019-01-16T04:49:50.826Z,1003.54
2019-01-16T04:50:50.799Z,1003.59
2019-01-16T04:51:50.786Z,1003.63
2019-01-16T04:52:50.759Z,1003.64
2019-01-16T04:53:50.736Z,1003.59
2019-01-16T04:54:50.715Z,1003.57
2019-01-16T04:55:51.226Z,1003.56
2019-01-16T04:56:50.668Z,1003.57
2019-01-16T04:57:50.650Z,1003.59
2019-01-16T04:58:50.629Z,1003.60
2019-01-16T04:59:50.606Z,1003.55
2019-01-16T05:00:50.583Z,1003.49
2019-01-16T05:01:50.566Z,1003.48
2019-01-16T05:02:50.542Z,1003.45
2019-01-16T05:03:50.517Z,1003.50
2019-01-16T05:04:50.494Z,1003.53
2019-01-16T05:05:50.473Z,1003.51
2019-01-16T05:06:50.450Z,1003.42
2019-01-16T05:07:50.432Z,1003.48
2019-01-16T05:08:50.412Z,1003.53
2019-01-16T05:09:50.390Z,1003.59
2019-01-16T05:10:50.369Z,1003.50
2019-01-16T05:11:50.341Z,1003.46
2019-01-16T05:12:50.316Z,1003.45
2019-01-16T05:13:50.297Z,1003.47
2019-01-16T05:14:50.272Z,1003.48
2019-01-16T05:15:50.254Z,1003.49
2019-01-16T05:16:50.233Z,1003.55
2019-01-16T05:17:50.210Z,1003.50
2019-01-16T05:18:50.190Z,1003.51
2019-01-16T05:19:50.163Z,1003.49
2019-01-16T05:20:50.142Z,1003.46
2019-01-16T05:21:50.122Z,1003.53
2019-01-16T05:22:50.094Z,1003.53
2019-01-16T05:23:50.083Z,1003.51
2019-01-16T05:24:50.058Z,1003.53
2019-01-16T05:25:50.036Z,1003.55
2019-01-16T05:26:50.008Z,1003.53
2019-01-16T05:27:49.984Z,1003.54
2019-01-16T05:28:49.967Z,1003.55
2019-01-16T05:29:49.944Z,1003.56
2019-01-16T05:30:49.923Z,1003.54
2019-01-16T05:31:49.904Z,1003.57
2019-01-16T05:32:49.879Z,1003.59
2019-01-16T05:33:49.860Z,1003.62
2019-01-16T05:34:49.836Z,1003.62
2019-01-16T05:35:49.818Z,1003.61
2019-01-16T05:36:49.792Z,1003.69
2019-01-16T05:37:49.771Z,1003.64
2019-01-16T05:38:49.745Z,1003.66
2019-01-16T05:39:49.727Z,1003.67
2019-01-16T05:40:49.707Z,1003.73
2019-01-16T05:41:49.687Z,1003.72
2019-01-16T05:42:49.656Z,1003.70
2019-01-16T05:43:49.636Z,1003.72
2019-01-16T05:44:49.618Z,1003.68
2019-01-16T05:45:49.592Z,1003.67
2019-01-16T05:46:49.568Z,1003.70
2019-01-16T05:47:49.548Z,1003.66
2019-01-16T05:48:49.527Z,1003.69
2019-01-16T05:49:49.503Z,1003.71
2019-01-16T05:50:49.485Z,1003.69
2019-01-16T05:51:49.458Z,1003.67
2019-01-16T05:52:49.440Z,1003.65
2019-01-16T05:53:49.419Z,1003.62
2019-01-16T05:54:49.409Z,1003.61
2019-01-16T05:55:49.373Z,1003.61
2019-01-16T05:56:49.357Z,1003.58
2019-01-16T05:57:49.336Z,1003.58
2019-01-16T05:58:49.309Z,1003.58
2019-01-16T05:59:49.283Z,1003.59
2019-01-16T06:00:49.262Z,1003.68
2019-01-16T06:01:49.242Z,1003.64
2019-01-16T06:02:49.223Z,1003.73
2019-01-16T06:03:49.199Z,1003.70
2019-01-16T06:04:49.177Z,1003.71
2019-01-16T06:05:49.153Z,1003.70
2019-01-16T06:06:49.132Z,1003.71
2019-01-16T06:07:49.127Z,1003.70
2019-01-16T06:08:49.088Z,1003.68
2019-01-16T06:09:49.062Z,1003.67
2019-01-16T06:10:49.049Z,1003.72
2019-01-16T06:11:49.022Z,1003.68
2019-01-16T06:12:49.002Z,1003.70
2019-01-16T06:13:48.977Z,1003.65
2019-01-16T06:14:48.955Z,1003.71
2019-01-16T06:15:48.936Z,1003.72
2019-01-16T06:16:48.914Z,1003.73
2019-01-16T06:17:48.887Z,1003.61
2019-01-16T06:18:48.871Z,1003.67
2019-01-16T06:19:54.050Z,1003.69
2019-01-16T06:20:48.825Z,1003.67
2019-01-16T06:21:48.800Z,1003.73
2019-01-16T06:22:48.783Z,1003.76
2019-01-16T06:23:48.759Z,1003.73
2019-01-16T06:24:48.736Z,1003.76
2019-01-16T06:25:48.713Z,1003.72
2019-01-16T06:26:48.692Z,1003.81
2019-01-16T06:27:48.669Z,1003.71
2019-01-16T06:28:48.650Z,1003.74
2019-01-16T06:29:48.627Z,1003.71
2019-01-16T06:30:48.604Z,1003.69
2019-01-16T06:31:48.583Z,1003.66
2019-01-16T06:32:49.346Z,1003.69
2019-01-16T06:33:48.545Z,1003.69
2019-01-16T06:34:48.519Z,1003.62
2019-01-16T06:35:48.492Z,1003.66
2019-01-16T06:36:48.482Z,1003.63
2019-01-16T06:37:48.451Z,1003.65
2019-01-16T06:38:48.425Z,1003.63
2019-01-16T06:39:48.401Z,1003.60
2019-01-16T06:40:48.379Z,1003.63
2019-01-16T06:41:48.360Z,1003.63
2019-01-16T06:42:48.343Z,1003.64
2019-01-16T06:43:48.316Z,1003.69
2019-01-16T06:44:48.295Z,1003.70
2019-01-16T06:45:48.271Z,1003.70
2019-01-16T06:46:48.247Z,1003.71
2019-01-16T06:47:48.225Z,1003.70
2019-01-16T06:48:48.201Z,1003.68
2019-01-16T06:49:48.187Z,1003.75
2019-01-16T06:50:48.161Z,1003.73
2019-01-16T06:51:48.241Z,1003.71
2019-01-16T06:52:48.121Z,1003.62
2019-01-16T06:53:48.097Z,1003.75
2019-01-16T06:54:48.071Z,1003.74
2019-01-16T06:55:48.056Z,1003.73
2019-01-16T06:56:48.033Z,1003.75
2019-01-16T06:57:48.005Z,1003.77
2019-01-16T06:58:47.995Z,1003.74
2019-01-16T06:59:47.961Z,1003.73
2019-01-16T07:00:47.941Z,1003.74
2019-01-16T07:01:47.920Z,1003.81
2019-01-16T07:02:47.895Z,1003.81
2019-01-16T07:03:47.874Z,1003.83
2019-01-16T07:04:47.851Z,1003.80
2019-01-16T07:05:47.837Z,1003.87
2019-01-16T07:06:47.809Z,1003.79
2019-01-16T07:07:47.783Z,1003.83
2019-01-16T07:08:47.770Z,1003.88
2019-01-16T07:09:47.743Z,1003.91
2019-01-16T07:10:47.717Z,1003.87
2019-01-16T07:11:47.696Z,1003.82
2019-01-16T07:12:47.675Z,1003.84
2019-01-16T07:13:47.650Z,1003.80
2019-01-16T07:14:47.634Z,1003.88
2019-01-16T07:15:47.610Z,1003.82
2019-01-16T07:16:47.590Z,1003.91
2019-01-16T07:17:47.564Z,1003.89
2019-01-16T07:18:47.543Z,1003.83
2019-01-16T07:19:47.521Z,1003.84
2019-01-16T07:20:47.500Z,1003.85
2019-01-16T07:21:47.488Z,1003.95
2019-01-16T07:22:47.452Z,1003.80
2019-01-16T07:23:47.443Z,1003.82
2019-01-16T07:24:47.411Z,1003.79
2019-01-16T07:25:47.388Z,1003.81
2019-01-16T07:26:47.366Z,1003.80
2019-01-16T07:27:47.347Z,1003.84
2019-01-16T07:28:47.325Z,1003.86
2019-01-16T07:29:47.302Z,1003.84
2019-01-16T07:30:47.279Z,1003.84
2019-01-16T07:31:47.254Z,1003.87
2019-01-16T07:32:47.235Z,1003.85
2019-01-16T07:33:47.216Z,1003.93
2019-01-16T07:34:47.186Z,1003.94
2019-01-16T07:35:47.170Z,1004.01
2019-01-16T07:36:47.145Z,1003.98
2019-01-16T07:37:47.123Z,1003.99
2019-01-16T07:38:47.107Z,1004.01
2019-01-16T07:39:47.078Z,1004.01
2019-01-16T07:40:47.054Z,1003.96
2019-01-16T07:41:47.039Z,1004.01
2019-01-16T07:42:47.283Z,1003.93
2019-01-16T07:43:46.992Z,1003.93
2019-01-16T07:44:46.970Z,1003.93
2019-01-16T07:45:46.946Z,1003.97
2019-01-16T07:46:46.928Z,1003.93
2019-01-16T07:47:46.901Z,1003.98
2019-01-16T07:48:46.878Z,1003.98
2019-01-16T07:49:46.860Z,1003.95
2019-01-16T07:50:46.839Z,1003.96
2019-01-16T07:51:46.814Z,1003.97
2019-01-16T07:52:46.796Z,1003.97
2019-01-16T07:53:46.770Z,1003.97
2019-01-16T07:54:46.746Z,1003.99
2019-01-16T07:55:46.725Z,1004.01
2019-01-16T07:56:46.703Z,1004.01
2019-01-16T07:57:46.688Z,1004.02
2019-01-16T07:58:46.664Z,1004.01
2019-01-16T07:59:46.635Z,1004.03
2019-01-16T08:00:46.668Z,1003.95
2019-01-16T08:01:46.592Z,1004.05
2019-01-16T08:02:46.570Z,1004.01
2019-01-16T08:03:46.549Z,1003.96
2019-01-16T08:04:46.524Z,1004.01
2019-01-16T08:05:46.503Z,1004.06
2019-01-16T08:06:46.556Z,1004.02
2019-01-16T08:07:46.460Z,1004.01
2019-01-16T08:08:46.441Z,1004.00
2019-01-16T08:09:46.417Z,1003.95
2019-01-16T08:10:46.401Z,1003.99
2019-01-16T08:11:46.370Z,1004.03
2019-01-16T08:12:46.350Z,1004.00
2019-01-16T08:13:46.330Z,1004.00
2019-01-16T08:14:46.304Z,1003.94
2019-01-16T08:15:46.284Z,1003.96
2019-01-16T08:16:46.265Z,1003.92
2019-01-16T08:17:46.244Z,1003.95
2019-01-16T08:18:46.216Z,1003.98
2019-01-16T08:19:46.202Z,1004.00
2019-01-16T08:20:46.171Z,1003.98
2019-01-16T08:21:46.150Z,1004.00
2019-01-16T08:22:46.128Z,1004.02
2019-01-16T08:23:46.118Z,1003.98
2019-01-16T08:24:46.082Z,1003.96
2019-01-16T08:25:46.072Z,1004.08
2019-01-16T08:26:46.040Z,1004.01
2019-01-16T08:27:46.018Z,1003.98
2019-01-16T08:28:45.995Z,1004.00
2019-01-16T08:29:45.973Z,1003.93
2019-01-16T08:30:45.960Z,1003.97
2019-01-16T08:31:45.938Z,1003.99
2019-01-16T08:32:45.906Z,1004.02
2019-01-16T08:33:45.889Z,1003.97
2019-01-16T08:34:45.866Z,1004.00
2019-01-16T08:35:45.844Z,1004.03
2019-01-16T08:36:45.820Z,1003.94
2019-01-16T08:37:45.802Z,1003.93
2019-01-16T08:38:45.778Z,1004.03
2019-01-16T08:39:45.756Z,1004.01
2019-01-16T08:40:45.732Z,1004.03
2019-01-16T08:41:45.708Z,1004.04
2019-01-16T08:42:45.689Z,1004.04
2019-01-16T08:43:45.666Z,1004.05
2019-01-16T08:44:45.644Z,1004.00
2019-01-16T08:45:45.630Z,1004.03
2019-01-16T08:46:45.600Z,1004.06
2019-01-16T08:47:45.579Z,1004.07
2019-01-16T08:48:45.552Z,1004.10
2019-01-16T08:49:45.539Z,1004.00
2019-01-16T08:50:45.511Z,1004.01
2019-01-16T08:51:45.494Z,1004.01
2019-01-16T08:52:45.467Z,1003.95
2019-01-16T08:53:45.444Z,1003.99
2019-01-16T08:54:45.423Z,1004.01
2019-01-16T08:55:45.400Z,1003.98
2019-01-16T08:56:45.378Z,1003.91
2019-01-16T08:57:45.369Z,1003.95
2019-01-16T08:58:46.760Z,1003.95
2019-01-16T08:59:45.314Z,1003.97
2019-01-16T09:00:45.290Z,1003.93
2019-01-16T09:01:45.269Z,1003.95
2019-01-16T09:02:45.246Z,1004.00
2019-01-16T09:03:45.224Z,1004.02
2019-01-16T09:04:45.204Z,1004.03
2019-01-16T09:05:45.178Z,1004.04
2019-01-16T09:06:45.161Z,1003.99
2019-01-16T09:07:45.140Z,1003.93
2019-01-16T09:08:45.138Z,1003.93
2019-01-16T09:09:45.095Z,1003.94
2019-01-16T09:10:45.075Z,1003.96
2019-01-16T09:11:45.046Z,1004.01
2019-01-16T09:12:45.024Z,1004.01
2019-01-16T09:13:45.006Z,1004.05
2019-01-16T09:14:44.987Z,1004.03
2019-01-16T09:15:45.011Z,1004.01
2019-01-16T09:16:44.935Z,1003.94
2019-01-16T09:17:44.917Z,1003.92
2019-01-16T09:18:44.893Z,1003.91
2019-01-16T09:19:44.871Z,1003.87
2019-01-16T09:20:44.849Z,1003.97
2019-01-16T09:21:44.829Z,1003.97
2019-01-16T09:22:45.034Z,1004.04
2019-01-16T09:23:44.786Z,1003.99
2019-01-16T09:24:44.759Z,1004.03
2019-01-16T09:25:44.744Z,1004.03
2019-01-16T09:26:44.714Z,1004.04
2019-01-16T09:27:44.697Z,1003.96
2019-01-16T09:28:44.674Z,1003.92
2019-01-16T09:29:44.653Z,1003.97
2019-01-16T09:30:44.634Z,1004.01
2019-01-16T09:31:44.611Z,1003.98
2019-01-16T09:32:44.587Z,1003.96
2019-01-16T09:33:44.565Z,1004.00
2019-01-16T09:34:44.551Z,1003.95
2019-01-16T09:35:44.523Z,1003.93
2019-01-16T09:36:44.499Z,1003.97
2019-01-16T09:37:44.481Z,1003.97
2019-01-16T09:38:44.455Z,1003.99
2019-01-16T09:39:44.431Z,1003.98
2019-01-16T09:40:44.415Z,1003.99
2019-01-16T09:41:44.387Z,1004.00
2019-01-16T09:42:44.366Z,1004.05
2019-01-16T09:43:44.343Z,1004.04
2019-01-16T09:44:44.321Z,1004.02
2019-01-16T09:45:44.300Z,1004.05
2019-01-16T09:46:44.281Z,1003.98
2019-01-16T09:47:44.257Z,1004.04
2019-01-16T09:48:44.239Z,1004.02
2019-01-16T09:49:44.222Z,1004.05
2019-01-16T09:50:47.987Z,1004.04
2019-01-16T09:51:44.170Z,1004.04
2019-01-16T09:52:44.155Z,1004.01
2019-01-16T09:53:44.132Z,1004.10
2019-01-16T09:54:44.101Z,1004.06
2019-01-16T09:55:44.079Z,1004.09
2019-01-16T09:56:44.063Z,1004.09
2019-01-16T09:57:44.034Z,1004.05
2019-01-16T09:58:44.017Z,1004.08
2019-01-16T09:59:43.990Z,1004.06
2019-01-16T10:00:43.970Z,1004.02
2019-01-16T10:01:43.952Z,1004.03
2019-01-16T10:02:43.925Z,1004.00
2019-01-16T10:03:43.904Z,1004.04
2019-01-16T10:04:43.881Z,1003.97
2019-01-16T10:05:43.860Z,1004.02
2019-01-16T10:06:43.839Z,1003.98
2019-01-16T10:07:43.819Z,1004.01
2019-01-16T10:08:43.809Z,1003.94
2019-01-16T10:09:43.773Z,1003.96
2019-01-16T10:10:43.751Z,1003.95
2019-01-16T10:11:43.736Z,1004.00
2019-01-16T10:12:43.713Z,1003.89
2019-01-16T10:13:43.685Z,1003.87
2019-01-16T10:14:43.666Z,1003.80
2019-01-16T10:15:43.643Z,1003.81
2019-01-16T10:16:43.618Z,1003.83
2019-01-16T10:17:43.601Z,1003.80
2019-01-16T10:18:47.212Z,1003.78
2019-01-16T10:19:43.556Z,1003.76
2019-01-16T10:20:46.289Z,1003.71
2019-01-16T10:21:46.535Z,1003.78
2019-01-16T10:24:11.082Z,1003.79
2019-01-16T10:25:11.053Z,1003.78
2019-01-16T10:26:11.035Z,1003.81
2019-01-16T10:27:11.014Z,1003.69
2019-01-16T10:28:10.992Z,1003.69
2019-01-16T10:29:10.968Z,1003.75
2019-01-16T10:30:10.950Z,1003.69
2019-01-16T10:31:10.922Z,1003.70
2019-01-16T10:32:10.900Z,1003.68
2019-01-16T10:33:10.880Z,1003.71
2019-01-16T10:34:10.861Z,1003.60
2019-01-16T10:35:10.835Z,1003.64
2019-01-16T10:36:10.817Z,1003.66
2019-01-16T10:37:10.789Z,1003.58
2019-01-16T10:38:10.764Z,1003.59
2019-01-16T10:39:10.750Z,1003.66
2019-01-16T10:40:10.724Z,1003.61
2019-01-16T10:41:10.700Z,1003.59
2019-01-16T10:42:10.690Z,1003.58
2019-01-16T10:43:10.660Z,1003.56
2019-01-16T10:44:10.636Z,1003.58
2019-01-16T10:45:10.618Z,1003.53
2019-01-16T10:46:10.592Z,1003.51
2019-01-16T10:47:10.570Z,1003.47
2019-01-16T10:48:10.546Z,1003.53
2019-01-16T10:49:10.530Z,1003.47
2019-01-16T10:50:10.506Z,1003.44
2019-01-16T10:51:10.480Z,1003.50
2019-01-16T10:52:10.461Z,1003.47
2019-01-16T10:53:10.434Z,1003.42
2019-01-16T10:54:10.418Z,1003.43
2019-01-16T10:55:10.390Z,1003.44
2019-01-16T10:56:10.374Z,1003.44
2019-01-16T10:57:10.354Z,1003.43
2019-01-16T10:58:10.326Z,1003.40
2019-01-16T10:59:10.301Z,1003.38
2019-01-16T11:00:10.281Z,1003.38
2019-01-16T11:01:10.259Z,1003.32
2019-01-16T11:02:10.239Z,1003.34
2019-01-16T11:03:10.217Z,1003.28
2019-01-16T11:04:10.190Z,1003.30
2019-01-16T11:05:10.172Z,1003.32
2019-01-16T11:06:10.146Z,1003.32
2019-01-16T11:07:10.126Z,1003.27
2019-01-16T11:08:10.106Z,1003.30
2019-01-16T11:09:10.078Z,1003.26
2019-01-16T11:10:10.059Z,1003.29
2019-01-16T11:11:16.073Z,1003.26
2019-01-16T11:12:10.016Z,1003.29
2019-01-16T11:13:09.995Z,1003.23
2019-01-16T11:14:09.971Z,1003.25
2019-01-16T11:15:09.952Z,1003.28
2019-01-16T11:16:09.930Z,1003.34
2019-01-16T11:17:09.904Z,1003.17
2019-01-16T11:18:09.884Z,1003.19
2019-01-16T11:19:09.860Z,1003.18
2019-01-16T11:20:09.839Z,1003.21
2019-01-16T11:21:11.132Z,1003.16
2019-01-16T11:22:09.794Z,1003.25
2019-01-16T11:23:09.771Z,1003.10
2019-01-16T11:24:09.750Z,1003.07
2019-01-16T11:25:09.730Z,1003.16
2019-01-16T11:26:09.708Z,1003.13
2019-01-16T11:27:09.684Z,1003.11
2019-01-16T11:28:09.662Z,1003.15
2019-01-16T11:29:09.638Z,1003.09
2019-01-16T11:30:09.619Z,1003.08
2019-01-16T11:31:09.594Z,1003.13
2019-01-16T11:32:09.572Z,1003.00
2019-01-16T11:33:09.552Z,1003.08
2019-01-16T11:34:09.526Z,1003.03
2019-01-16T11:35:09.510Z,1003.02
2019-01-16T11:36:09.486Z,1003.02
2019-01-16T11:37:09.475Z,1002.97
2019-01-16T11:38:09.439Z,1003.01
2019-01-16T11:39:09.428Z,1002.96
2019-01-16T11:40:09.396Z,1002.90
2019-01-16T11:41:09.376Z,1002.94
2019-01-16T11:42:09.358Z,1002.96
2019-01-16T11:43:09.338Z,1002.91
2019-01-16T11:44:09.314Z,1002.93
2019-01-16T11:45:09.283Z,1002.93
2019-01-16T11:46:09.267Z,1002.84
2019-01-16T11:47:09.241Z,1002.85
2019-01-16T11:48:09.224Z,1002.85
2019-01-16T11:49:09.202Z,1002.83
2019-01-16T11:50:09.202Z,1002.86
2019-01-16T11:51:09.156Z,1002.81
2019-01-16T11:52:09.134Z,1002.81
2019-01-16T11:53:09.111Z,1002.82
2019-01-16T11:54:09.090Z,1002.82
2019-01-16T11:55:09.072Z,1002.80
2019-01-16T11:56:09.053Z,1002.88
2019-01-16T11:57:09.027Z,1002.79
2019-01-16T11:58:09.001Z,1002.82
2019-01-16T11:59:08.980Z,1002.79
2019-01-16T12:00:08.963Z,1002.78
2019-01-16T12:01:08.938Z,1002.72
2019-01-16T12:02:08.929Z,1002.75
2019-01-16T12:03:08.893Z,1002.77
2019-01-16T12:04:08.873Z,1002.72
2019-01-16T12:05:08.857Z,1002.74
2019-01-16T12:06:08.835Z,1002.70
2019-01-16T12:07:08.803Z,1002.73
2019-01-16T12:08:08.784Z,1002.76